Latest Weather Observations for Rockhampton

IDQ60801

Issued at 2:02 am EST Friday 24 March 2017 (issued every 30 minutes, with the page automatically refreshed every 10 minutes)

About weather observations | Map of weather stations | Latest weather observations for QLD | Other Formats
Station Details ID: 039083 Name: ROCKHAMPTON AERO Lat: -23.38 Lon: 150.48 Height: 10.4 m
Data from the previous 72 hours. | See also: Recent months at Rockhampton
Date/Time
EST
Temp
°C
App
Temp
°C
Dew
Point
°C
Rel
Hum
%
Delta-T
°C
Wind Press
QNH
hPa
Press
MSL
hPa
Rain since
9am
mm
Dir  Spd
km/h
Gust
km/h
Spd
kts
Gust
kts
24/01:30am 23.8 27.4 23.1 96 0.5 SE 9 15 5 8 1012.6 1012.5 3.8
24/01:00am 23.9 27.6 23.2 96 0.5 SE 9 15 5 8 1012.8 1012.7 3.8
24/12:30am 24.0 27.0 23.3 96 0.5 SE 13 15 7 8 1013.0 1012.9 3.8
24/12:00am 24.1 27.5 23.4 96 0.5 SE 11 17 6 9 1013.4 1013.3 3.8
 
Date/Time
EST
Temp
°C
App
Temp
°C
Dew
Point
°C
Rel
Hum
%
Delta-T
°C
Wind Press
QNH
hPa
Press
MSL
hPa
Rain since
9am
mm
Dir  Spd
km/h
Gust
km/h
Spd
kts
Gust
kts
23/11:30pm 24.2 27.9 23.2 94 0.7 SSE 9 13 5 7 1013.9 1013.8 3.8
23/11:00pm 24.2 28.3 23.2 94 0.7 SE 7 11 4 6 1014.1 1014.0 3.8
23/10:30pm 24.3 27.9 23.0 92 0.9 ESE 9 11 5 6 1014.2 1014.1 3.8
23/10:00pm 24.1 27.0 23.1 94 0.7 ESE 13 17 7 9 1014.3 1014.2 3.8
23/09:30pm 24.1 27.4 23.2 95 0.6 ESE 11 17 6 9 1014.4 1014.3 3.8
23/09:00pm 24.2 27.7 23.5 96 0.5 ESE 11 15 6 8 1014.4 1014.3 3.8
23/08:30pm 24.0 27.0 23.4 96 0.4 SE 13 19 7 10 1014.2 1014.1 3.8
23/08:00pm 24.1 27.0 23.2 95 0.6 SE 13 19 7 10 1014.1 1014.0 3.8
23/07:30pm 24.2 27.2 23.3 95 0.6 SE 13 17 7 9 1013.9 1013.8 3.8
23/07:00pm 24.2 26.7 23.2 94 0.7 ESE 15 20 8 11 1013.3 1013.2 3.8
23/06:30pm 24.2 27.3 23.5 96 0.5 SE 13 17 7 9 1013.3 1013.2 3.8
23/06:01pm 24.7 28.7 23.8 95 0.6 ESE 9 17 5 9 1012.9 1012.8 3.8
23/06:00pm 24.7 28.7 23.8 95 0.6 SE 9 17 5 9 1012.9 1012.8 3.8
23/05:55pm 24.8 29.0 24.1 96 0.5 SE 9 13 5 7 1012.9 1012.8 3.8
23/05:30pm 24.7 28.0 23.2 91 1.0 ENE 11 19 6 10 1012.7 1012.6 3.4
23/05:21pm 25.4 28.6 23.0 86 1.6 ENE 11 22 6 12 1012.5 1012.4 2.8
23/05:00pm 26.6 30.1 22.8 79 2.6 ENE 9 13 5 7 1012.3 1012.2 2.4
23/04:30pm 26.5 29.2 22.8 80 2.5 NE 13 20 7 11 1012.1 1012.0 2.2
23/04:00pm 26.4 30.1 23.3 83 2.1 ENE 9 17 5 9 1012.0 1011.9 2.2
23/03:30pm 26.7 29.0 22.7 79 2.7 ESE 15 24 8 13 1011.7 1011.6 2.2
23/03:00pm 26.7 29.6 23.2 81 2.4 ESE 13 20 7 11 1011.7 1011.6 2.2
23/02:30pm 26.4 28.9 22.5 79 2.6 E 13 19 7 10 1011.9 1011.8 2.2
23/02:00pm 25.7 28.6 23.2 86 1.7 ESE 13 20 7 11 1012.1 1012.0 2.2
23/01:30pm 26.5 29.9 23.3 82 2.2 ESE 11 17 6 9 1012.3 1012.2 2.2
23/01:01pm 25.9 28.9 23.4 86 1.7 E 13 19 7 10 1012.5 1012.4 2.2
23/01:00pm 25.9 28.9 23.4 86 1.7 E 13 19 7 10 1012.6 1012.5 2.2
23/12:49pm 25.4 29.2 24.1 92 0.9 ESE 11 17 6 9 1012.8 1012.7 2.2
23/12:30pm 25.1 28.0 23.9 93 0.8 ESE 15 20 8 11 1013.1 1013.0 2.2
23/12:09pm 24.9 28.2 23.9 94 0.7 SE 13 20 7 11 1013.4 1013.3 2.2
23/12:00pm 24.8 27.9 24.1 96 0.5 SE 15 22 8 12 1013.6 1013.5 2.2
23/11:30am 25.1 27.7 23.9 93 0.8 ESE 17 24 9 13 1013.8 1013.7 0.6
23/11:11am 25.4 28.2 23.6 90 1.2 ESE 15 20 8 11 1013.9 1013.8 0.0
23/11:00am 25.2 27.5 23.4 90 1.2 ESE 17 26 9 14 1014.1 1014.0 0.0
23/10:30am 25.7 27.9 23.2 86 1.7 ESE 17 24 9 13 1014.2 1014.1 0.0
23/10:12am 26.4 29.7 23.8 85 1.8 E 13 20 7 11 1014.2 1014.1 0.0
23/10:00am 25.9 28.7 23.7 88 1.5 ESE 15 20 8 11 1014.3 1014.2 0.0
23/09:30am 24.8 26.6 23.3 91 1.0 SE 19 30 10 16 1014.3 1014.2 0.0
23/09:00am 25.1 26.9 23.2 89 1.3 SE 19 28 10 15 1014.1 1014.0 19.0
23/08:30am 24.5 26.4 23.5 94 0.7 SE 19 26 10 14 1013.9 1013.8 19.0
23/08:00am 24.0 26.1 23.1 95 0.6 SE 17 26 9 14 1013.8 1013.7 19.0
23/07:30am 23.8 26.3 23.2 96 0.4 SE 15 19 8 10 1013.0 1012.9 19.0
23/07:27am 23.7 26.2 23.1 96 0.4 SSE 15 19 8 10 1013.0 1012.9 19.0
23/07:04am 23.2 25.5 22.8 98 0.3 SE 15 24 8 13 1012.9 1012.8 19.0
23/07:00am 23.2 25.5 22.8 98 0.3 SE 15 24 8 13 1013.0 1012.9 18.8
23/06:46am 23.2 25.0 22.6 96 0.4 SE 17 24 9 13 1013.0 1012.9 18.8
23/06:30am 23.2 25.4 22.6 96 0.4 SE 15 20 8 11 1012.8 1012.7 18.8
23/06:00am 23.1 25.6 22.5 96 0.4 SE 13 20 7 11 1012.4 1012.3 18.8
23/05:54am 23.1 24.9 22.5 96 0.4 SE 17 26 9 14 1012.3 1012.2 18.8
23/05:36am 23.1 24.9 22.5 96 0.4 ESE 17 24 9 13 1012.0 1011.9 18.8
23/05:30am 23.1 24.9 22.5 96 0.4 ESE 17 24 9 13 1011.9 1011.8 18.8
23/05:00am 23.2 25.1 22.8 98 0.3 ESE 17 22 9 12 1011.6 1011.5 18.8
23/04:30am 23.2 26.3 22.8 98 0.3 ESE 11 17 6 9 1011.3 1011.2 18.8
23/04:00am 23.2 25.8 22.6 96 0.4 ESE 13 22 7 12 1011.3 1011.2 18.8
23/03:43am 23.2 25.4 22.6 96 0.4 SE 15 20 8 11 1011.3 1011.2 18.8
23/03:30am 23.1 25.0 22.7 98 0.3 SE 17 26 9 14 1011.4 1011.3 18.8
23/03:08am 23.2 25.5 22.8 98 0.3 SE 15 22 8 12 1011.4 1011.3 17.0
23/03:00am 23.2 25.5 22.8 98 0.3 ESE 15 20 8 11 1011.5 1011.4 17.0
23/02:30am 23.1 25.2 22.5 96 0.4 SE 15 24 8 13 1011.3 1011.2 17.0
23/02:00am 23.0 25.5 22.4 96 0.4 SE 13 19 7 10 1011.6 1011.5 16.8
23/01:55am 23.0 25.9 22.4 96 0.4 ESE 11 19 6 10 1011.7 1011.6 16.8
23/01:30am 23.0 25.5 22.4 96 0.4 ESE 13 17 7 9 1012.1 1012.0 16.4
23/01:29am 23.0 25.9 22.4 96 0.4 ESE 11 17 6 9 1012.1 1012.0 16.2
23/01:00am 23.0 25.9 22.4 96 0.4 SE 11 15 6 8 1012.5 1012.4 15.6
23/12:41am 23.0 25.9 22.4 96 0.4 ESE 11 15 6 8 1012.5 1012.4 15.6
23/12:30am 23.0 25.5 22.4 96 0.4 ESE 13 17 7 9 1012.6 1012.5 15.6
23/12:18am 23.0 25.9 22.4 96 0.4 ESE 11 17 6 9 1012.8 1012.7 15.6
23/12:00am 23.1 26.0 22.4 96 0.5 ESE 11 15 6 8 1013.2 1013.1 15.6
 
Date/Time
EST
Temp
°C
App
Temp
°C
Dew
Point
°C
Rel
Hum
%
Delta-T
°C
Wind Press
QNH
hPa
Press
MSL
hPa
Rain since
9am
mm
Dir  Spd
km/h
Gust
km/h
Spd
kts
Gust
kts
22/11:50pm 23.1 26.0 22.4 96 0.5 ESE 11 15 6 8 1013.3 1013.2 15.4
22/11:30pm 23.1 25.5 22.2 95 0.6 ESE 13 28 7 15 1013.2 1013.1 15.4
22/11:00pm 23.1 25.1 22.2 95 0.6 SE 15 20 8 11 1013.4 1013.3 15.4
22/10:30pm 23.0 25.3 22.1 95 0.6 SE 13 20 7 11 1013.4 1013.3 15.4
22/10:00pm 23.0 25.0 22.2 95 0.5 ESE 15 22 8 12 1013.4 1013.3 15.4
22/09:41pm 23.1 25.1 22.2 95 0.6 ESE 15 26 8 14 1013.5 1013.4 15.4
22/09:30pm 23.2 25.5 22.1 93 0.7 ESE 13 20 7 11 1013.5 1013.4 15.4
22/09:05pm 23.2 25.6 22.3 95 0.6 ESE 13 17 7 9 1013.4 1013.3 15.4
22/09:00pm 23.2 26.0 22.3 95 0.6 ESE 11 15 6 8 1013.4 1013.3 15.4
22/08:30pm 23.5 26.2 22.8 96 0.5 ESE 13 20 7 11 1013.0 1012.9 15.0
22/08:04pm 23.8 26.9 22.9 95 0.6 SE 11 15 6 8 1012.7 1012.6 14.0
22/08:01pm 23.8 27.4 23.1 96 0.5 SE 9 13 5 7 1012.7 1012.6 13.8
22/08:00pm 23.8 27.5 23.2 96 0.4 SE 9 13 5 7 1012.7 1012.6 13.8
22/07:42pm 23.7 27.8 23.0 96 0.5 ESE 6 11 3 6 1012.4 1012.3 13.8
22/07:30pm 23.4 27.2 22.7 96 0.5 E 7 9 4 5 1012.4 1012.3 13.6
22/07:15pm 23.5 26.1 22.6 95 0.6 NE 13 19 7 10 1012.3 1012.2 13.0
22/07:00pm 23.8 26.3 23.1 96 0.5 NE 15 28 8 15 1012.5 1012.4 11.2
22/06:57pm 24.3 27.2 23.1 93 0.8 E 13 28 7 15 1012.4 1012.3 9.4
22/06:50pm 24.3 27.2 23.1 93 0.8 ESE 13 19 7 10 1012.0 1011.9 9.4
22/06:40pm 24.3 26.7 23.0 92 0.9 ESE 15 20 8 11 1011.8 1011.7 9.4
22/06:30pm 24.3 26.3 23.0 92 0.9 ESE 17 24 9 13 1011.7 1011.6 9.4
22/06:00pm 24.6 26.5 22.8 90 1.2 SE 17 24 9 13 1011.3 1011.2 9.4
22/05:30pm 25.1 27.9 23.0 88 1.4 SE 13 22 7 12 1011.0 1010.9 9.4
22/05:00pm 25.4 28.3 23.2 88 1.5 SE 13 19 7 10 1011.0 1010.9 9.4
22/04:30pm 25.3 28.2 23.2 88 1.4 ESE 13 22 7 12 1010.9 1010.8 9.4
22/04:00pm 25.2 28.4 23.1 88 1.4 SE 11 17 6 9 1011.0 1010.9 9.4
22/03:30pm 25.5 27.4 22.1 81 2.3 ESE 15 20 8 11 1010.8 1010.7 9.4
22/03:00pm 25.2 26.9 21.7 81 2.3 ESE 15 22 8 12 1010.4 1010.3 9.4
22/02:30pm 25.0 27.3 22.0 83 2.0 ESE 13 19 7 10 1010.5 1010.4 9.4
22/02:00pm 24.2 25.6 21.8 86 1.6 E 17 24 9 13 1010.9 1010.8 9.4
22/01:30pm 24.4 27.9 23.5 95 0.6 ESE 11 17 6 9 1011.3 1011.2 9.0
22/01:00pm 24.0 27.6 23.1 95 0.6 ESE 9 15 5 8 1012.0 1011.9 8.0
22/12:46pm 24.0 27.2 23.1 95 0.6 ESE 11 17 6 9 1012.2 1012.1 7.6
22/12:34pm 23.9 26.8 23.2 96 0.5 ESE 13 19 7 10 1012.4 1012.3 7.4
22/12:30pm 23.9 26.3 23.0 95 0.6 ESE 15 20 8 11 1012.5 1012.4 7.2
22/12:12pm 24.0 27.4 23.3 96 0.5 ESE 11 17 6 9 1012.7 1012.6 7.0
22/12:00pm 23.8 27.0 23.1 96 0.5 ESE 11 15 6 8 1012.9 1012.8 6.6
22/11:48am 23.6 26.3 22.9 96 0.5 ESE 13 20 7 11 1013.0 1012.9 6.2
22/11:30am 23.5 26.2 22.8 96 0.5 ESE 13 20 7 11 1013.1 1013.0 5.2
22/11:00am 23.4 26.3 22.5 95 0.6 ESE 11 19 6 10 1013.3 1013.2 4.0
22/10:30am 23.4 25.9 22.5 95 0.6 ESE 13 22 7 12 1013.4 1013.3 3.4
22/10:00am 23.6 26.2 22.6 94 0.7 ESE 13 19 7 10 1013.5 1013.4 3.2
22/09:30am 23.2 25.7 22.5 96 0.5 ESE 13 17 7 9 1013.7 1013.6 2.6
22/09:00am 22.7 25.2 22.4 98 0.2 SE 13 19 7 10 1013.8 1013.7 76.6
22/08:30am 22.5 24.4 22.0 97 0.3 ESE 15 24 8 13 1014.0 1013.9 70.4
22/08:00am 22.1 23.8 21.6 97 0.3 ESE 15 22 8 12 1013.6 1013.5 65.8
22/07:30am 21.9 23.9 21.6 98 0.2 ESE 13 20 7 11 1013.3 1013.2 57.2
22/07:00am 21.9 22.5 21.3 96 0.4 ESE 20 28 11 15 1012.8 1012.7 47.6
22/06:30am 22.2 23.2 21.7 97 0.3 ESE 19 26 10 14 1012.5 1012.4 40.0
22/06:17am 22.6 23.8 22.1 97 0.3 ESE 19 26 10 14 1012.3 1012.2 36.4
22/06:00am 23.1 25.4 22.7 98 0.3 SE 15 22 8 12 1012.1 1012.0 30.2
22/05:30am 23.1 25.6 22.5 96 0.4 SE 13 19 7 10 1011.9 1011.8 27.4
22/05:08am 23.3 25.9 22.6 96 0.5 SE 13 20 7 11 1011.7 1011.6 27.2
22/05:03am 23.4 26.0 22.7 96 0.5 SE 13 24 7 13 1011.6 1011.5 27.2
22/05:00am 23.5 26.1 22.6 95 0.6 SE 13 24 7 13 1011.6 1011.5 27.2
22/04:34am 23.7 25.6 22.8 95 0.6 SE 17 24 9 13 1011.3 1011.2 27.2
22/04:30am 23.7 25.6 22.7 94 0.7 SE 17 26 9 14 1011.2 1011.1 27.2
22/04:19am 23.6 25.6 22.9 96 0.5 SE 17 26 9 14 1011.1 1011.0 27.2
22/04:14am 23.6 26.0 22.9 96 0.5 SE 15 24 8 13 1011.1 1011.0 27.2
22/04:00am 23.4 25.8 23.0 98 0.3 SE 15 20 8 11 1011.1 1011.0 27.2
22/03:53am 23.5 25.9 22.9 96 0.4 SE 15 24 8 13 1011.1 1011.0 27.2
22/03:36am 23.6 26.9 23.2 98 0.3 SE 11 17 6 9 1011.1 1011.0 27.0
22/03:32am 23.6 26.9 23.2 98 0.3 SE 11 17 6 9 1011.1 1011.0 27.0
22/03:30am 23.6 26.9 23.2 98 0.3 SE 11 17 6 9 1011.1 1011.0 27.0
22/03:14am 23.6 26.9 23.2 98 0.3 SSE 11 15 6 8 1011.1 1011.0 27.0
22/03:00am 23.7 27.4 23.3 98 0.3 SSE 9 15 5 8 1011.1 1011.0 27.0
22/02:35am 23.7 27.4 23.3 98 0.3 S 9 15 5 8 1011.3 1011.2 27.0
22/02:30am 23.7 27.4 23.3 98 0.3 S 9 15 5 8 1011.3 1011.2 27.0
22/02:16am 23.7 27.7 23.1 96 0.4 SE 7 9 4 5 1011.4 1011.3 26.8
22/02:08am 23.7 27.8 23.3 98 0.3 SE 7 11 4 6 1011.5 1011.4 26.8
22/02:00am 23.7 27.7 23.1 96 0.4 SE 7 11 4 6 1011.6 1011.5 26.6
22/01:30am 24.0 29.6 23.6 98 0.3 CALM 0 9 0 5 1011.7 1011.6 26.6
22/01:09am 24.0 29.4 23.3 96 0.5 CALM 0 0 0 0 1011.8 1011.7 26.6
22/01:00am 23.9 29.3 23.3 96 0.4 CALM 0 0 0 0 1012.0 1011.9 26.6
22/12:42am 24.1 27.9 23.5 96 0.4 ESE 9 13 5 7 1012.1 1012.0 26.4
22/12:30am 24.1 28.4 23.7 98 0.3 E 7 9 4 5 1012.2 1012.1 26.2
22/12:17am 23.9 28.1 23.5 98 0.3 ENE 7 9 4 5 1012.4 1012.3 25.4
22/12:00am 23.8 28.0 23.4 98 0.3 SE 7 11 4 6 1012.4 1012.3 24.8
 
Date/Time
EST
Temp
°C
App
Temp
°C
Dew
Point
°C
Rel
Hum
%
Delta-T
°C
Wind Press
QNH
hPa
Press
MSL
hPa
Rain since
9am
mm
Dir  Spd
km/h
Gust
km/h
Spd
kts
Gust
kts
21/11:39pm 23.5 27.3 22.8 96 0.5 SE 7 13 4 7 1012.6 1012.5 24.0
21/11:30pm 23.3 26.9 22.4 95 0.6 ESE 7 11 4 6 1012.6 1012.5 24.0
21/11:03pm 24.0 26.3 22.7 92 0.9 ENE 15 33 8 18 1013.0 1012.9 21.6
21/11:00pm 24.6 27.6 23.4 93 0.8 E 13 20 7 11 1013.0 1012.9 21.0
21/10:30pm 24.5 28.3 23.5 94 0.7 ESE 9 13 5 7 1012.5 1012.4 20.8
21/10:00pm 24.6 28.1 23.6 94 0.7 ESE 11 17 6 9 1012.7 1012.6 20.8
21/09:30pm 24.7 28.5 23.5 93 0.8 ESE 9 13 5 7 1012.7 1012.6 20.8
21/09:00pm 24.9 28.7 23.4 91 1.0 SE 9 17 5 9 1013.0 1012.9 20.8
21/08:30pm 25.1 28.6 23.6 91 1.0 SE 11 17 6 9 1012.6 1012.5 20.8
21/08:00pm 25.2 28.8 23.7 91 1.0 SE 11 13 6 7 1012.4 1012.3 20.8
21/07:30pm 25.2 29.7 24.0 93 0.8 ESE 7 11 4 6 1012.2 1012.1 20.8
21/07:00pm 25.1 29.0 24.2 95 0.6 SE 11 13 6 7 1011.8 1011.7 20.8
21/06:30pm 25.0 29.5 23.7 92 0.9 ENE 6 9 3 5 1011.7 1011.6 20.8
21/06:00pm 24.9 28.2 22.5 86 1.6 E 9 17 5 9 1011.6 1011.5 20.8
21/05:30pm 25.0 28.2 23.1 89 1.3 ESE 11 15 6 8 1011.4 1011.3 20.8
21/05:00pm 25.0 27.7 22.2 84 1.9 SE 11 15 6 8 1011.4 1011.3 20.8
21/04:30pm 25.5 28.4 23.1 86 1.6 SE 13 17 7 9 1011.2 1011.1 20.8
21/04:00pm 25.5 29.1 23.0 86 1.7 ESE 9 13 5 7 1011.1 1011.0 20.8
21/03:30pm 24.7 27.9 22.3 86 1.6 ESE 9 13 5 7 1011.0 1010.9 20.8
21/03:00pm 24.6 26.0 22.5 88 1.4 SE 19 37 10 20 1011.1 1011.0 20.8
21/02:30pm 24.7 27.0 22.8 89 1.3 SE 15 22 8 12 1011.3 1011.2 20.8
21/02:00pm 24.0 25.2 22.2 90 1.2 SE 19 30 10 16 1011.8 1011.7 20.8
21/01:30pm 24.0 26.3 22.8 93 0.8 SE 15 22 8 12 1012.0 1011.9 20.8
21/01:00pm 24.2 27.7 22.9 92 0.9 SE 9 15 5 8 1012.4 1012.3 20.4
21/12:49pm 24.0 26.9 22.5 91 1.0 SE 11 17 6 9 1012.5 1012.4 19.8
21/12:48pm 24.0 26.9 22.5 91 1.0 SE 11 17 6 9 1012.6 1012.5 19.8
21/12:30pm 24.1 29.2 23.4 96 0.5 ESE 2 7 1 4 1012.8 1012.7 19.0
21/12:09pm 23.8 27.9 22.9 95 0.6 E 6 9 3 5 1013.1 1013.0 15.8
21/12:00pm 23.8 27.3 22.8 94 0.7 ESE 9 13 5 7 1013.2 1013.1 13.6
21/11:48am 24.0 27.1 22.8 93 0.8 SE 11 15 6 8 1013.3 1013.2 11.6
21/11:30am 24.3 27.8 22.8 91 1.0 E 9 13 5 7 1013.5 1013.4 10.0
21/11:11am 24.3 27.5 23.0 92 0.9 E 11 20 6 11 1013.5 1013.4 9.4
21/11:00am 24.4 28.0 23.7 96 0.5 E 11 15 6 8 1013.6 1013.5 9.0
21/10:59am 24.3 27.8 23.6 96 0.5 E 11 15 6 8 1013.6 1013.5 9.0
21/10:36am 24.1 27.9 23.5 96 0.4 ENE 9 15 5 8 1013.8 1013.7 7.2
21/10:30am 24.1 27.7 23.7 98 0.3 E 11 15 6 8 1013.9 1013.8 6.0
21/10:28am 24.2 28.1 23.6 96 0.4 E 9 15 5 8 1014.0 1013.9 5.0
21/10:12am 24.1 27.5 23.4 96 0.5 SE 11 19 6 10 1013.9 1013.8 3.2
21/10:00am 23.8 26.7 23.1 96 0.5 ESE 13 19 7 10 1014.0 1013.9 2.8
21/09:50am 23.7 26.8 22.8 95 0.6 ESE 11 17 6 9 1014.0 1013.9 2.0
21/09:30am 23.7 26.7 22.7 94 0.7 ESE 11 15 6 8 1014.0 1013.9 0.6
21/09:00am 23.9 26.3 23.0 95 0.6 ESE 15 20 8 11 1014.1 1014.0 56.8
21/08:30am 24.2 26.7 23.2 94 0.7 ESE 15 20 8 11 1013.9 1013.8 55.6
21/08:21am 24.0 27.0 23.3 96 0.5 ESE 13 19 7 10 1013.8 1013.7 55.6
21/08:06am 24.0 27.2 23.0 94 0.7 SE 11 15 6 8 1013.6 1013.5 55.4
21/08:00am 24.0 27.2 23.1 95 0.6 SE 11 15 6 8 1013.5 1013.4 55.4
21/07:30am 23.8 27.0 23.1 96 0.5 SE 11 17 6 9 1013.1 1013.0 55.4
21/07:00am 23.5 26.2 22.9 96 0.4 SE 13 20 7 11 1012.8 1012.7 55.4
21/06:30am 23.4 26.1 22.8 96 0.4 ESE 13 20 7 11 1012.6 1012.5 55.4
21/06:00am 23.5 26.6 22.9 96 0.4 SE 11 17 6 9 1012.4 1012.3 55.4
21/05:30am 23.3 25.7 22.9 98 0.3 SE 15 24 8 13 1012.2 1012.1 55.4
21/05:00am 23.1 25.4 22.7 98 0.3 SE 15 26 8 14 1011.7 1011.6 55.2
21/04:47am 23.0 25.6 22.6 98 0.3 SE 13 24 7 13 1011.6 1011.5 55.2
21/04:30am 22.8 25.3 22.4 98 0.3 SE 13 20 7 11 1011.8 1011.7 55.0
21/04:11am 22.6 24.9 22.1 97 0.3 SE 13 20 7 11 1011.9 1011.8 52.4
21/04:00am 22.6 25.7 22.1 97 0.3 SE 9 13 5 7 1012.0 1011.9 51.4
21/03:53am 22.5 25.2 22.2 98 0.2 SE 11 17 6 9 1012.0 1011.9 51.2
21/03:46am 22.5 25.1 22.0 97 0.3 SE 11 15 6 8 1012.0 1011.9 50.6
21/03:32am 22.5 24.8 22.0 97 0.3 SE 13 17 7 9 1012.0 1011.9 49.4
21/03:30am 22.5 24.8 22.0 97 0.3 SE 13 17 7 9 1012.0 1011.9 49.2
21/03:17am 22.6 25.3 22.1 97 0.3 SE 11 17 6 9 1012.1 1012.0 48.2
21/03:00am 22.5 24.7 21.9 96 0.4 SE 13 19 7 10 1012.1 1012.0 47.0
21/02:31am 22.7 25.4 22.1 96 0.4 SE 11 17 6 9 1012.1 1012.0 44.0
21/02:30am 22.7 25.4 22.1 96 0.4 SE 11 17 6 9 1012.1 1012.0 43.8

Other Formats:

Comma delimited format used in spreadsheet applications
http://www.bom.gov.au/fwo/IDQ60801/IDQ60801.94374.axf

JavaScript Object Notation format (JSON) in row-major order
http://www.bom.gov.au/fwo/IDQ60801/IDQ60801.94374.json